sensor_id;sensor_type;location;lat;lon;timestamp;pressure;altitude;pressure_sealevel;temperature;humidity
53526;BME280;40551;50.478;19.378;2023-07-30T00:01:52;97301.21;;;17.39;81.90
53526;BME280;40551;50.478;19.378;2023-07-30T00:04:25;97300.45;;;17.40;81.99
53526;BME280;40551;50.478;19.378;2023-07-30T00:06:58;97300.80;;;17.43;82.08
53526;BME280;40551;50.478;19.378;2023-07-30T00:09:32;97302.25;;;17.42;82.24
53526;BME280;40551;50.478;19.378;2023-07-30T00:12:07;97302.35;;;17.43;82.41
53526;BME280;40551;50.478;19.378;2023-07-30T00:14:41;97308.16;;;17.43;82.41
53526;BME280;40551;50.478;19.378;2023-07-30T00:17:16;97312.73;;;17.43;82.47
53526;BME280;40551;50.478;19.378;2023-07-30T00:19:49;97320.23;;;17.43;82.78
53526;BME280;40551;50.478;19.378;2023-07-30T00:22:22;97323.15;;;17.44;82.72
53526;BME280;40551;50.478;19.378;2023-07-30T00:24:56;97335.20;;;17.44;82.90
53526;BME280;40551;50.478;19.378;2023-07-30T00:27:29;97329.42;;;17.47;83.01
53526;BME280;40551;50.478;19.378;2023-07-30T00:30:04;97330.63;;;17.49;83.16
53526;BME280;40551;50.478;19.378;2023-07-30T00:32:39;97336.23;;;17.51;83.39
53526;BME280;40551;50.478;19.378;2023-07-30T00:35:17;97331.66;;;17.54;83.49
53526;BME280;40551;50.478;19.378;2023-07-30T00:37:50;97329.98;;;17.57;83.62
53526;BME280;40551;50.478;19.378;2023-07-30T00:40:24;97328.71;;;17.59;83.80
53526;BME280;40551;50.478;19.378;2023-07-30T00:43:00;97325.29;;;17.63;83.92
53526;BME280;40551;50.478;19.378;2023-07-30T00:45:33;97330.39;;;17.67;84.06
53526;BME280;40551;50.478;19.378;2023-07-30T00:48:07;97331.39;;;17.70;83.81
53526;BME280;40551;50.478;19.378;2023-07-30T00:50:41;97330.32;;;17.71;83.70
53526;BME280;40551;50.478;19.378;2023-07-30T00:53:17;97335.56;;;17.73;84.03
53526;BME280;40551;50.478;19.378;2023-07-30T00:55:52;97343.34;;;17.74;83.90
53526;BME280;40551;50.478;19.378;2023-07-30T00:58:26;97337.66;;;17.73;83.97
53526;BME280;40551;50.478;19.378;2023-07-30T01:01:00;97337.94;;;17.72;83.89
53526;BME280;40551;50.478;19.378;2023-07-30T01:03:35;97334.90;;;17.73;84.01
53526;BME280;40551;50.478;19.378;2023-07-30T01:06:08;97333.48;;;17.73;83.93
53526;BME280;40551;50.478;19.378;2023-07-30T01:08:43;97342.21;;;17.70;84.13
53526;BME280;40551;50.478;19.378;2023-07-30T01:11:17;97350.21;;;17.67;84.08
53526;BME280;40551;50.478;19.378;2023-07-30T01:13:50;97352.34;;;17.64;84.06
53526;BME280;40551;50.478;19.378;2023-07-30T01:16:23;97362.23;;;17.62;84.25
53526;BME280;40551;50.478;19.378;2023-07-30T01:18:55;97362.30;;;17.59;84.42
53526;BME280;40551;50.478;19.378;2023-07-30T01:21:30;97368.36;;;17.57;84.23
53526;BME280;40551;50.478;19.378;2023-07-30T01:24:05;97363.20;;;17.54;84.30
53526;BME280;40551;50.478;19.378;2023-07-30T01:26:43;97368.38;;;17.55;84.52
53526;BME280;40551;50.478;19.378;2023-07-30T01:29:24;97371.15;;;17.52;84.25
53526;BME280;40551;50.478;19.378;2023-07-30T01:32:04;97378.17;;;17.50;84.46
53526;BME280;40551;50.478;19.378;2023-07-30T01:34:41;97376.79;;;17.49;84.69
53526;BME280;40551;50.478;19.378;2023-07-30T01:37:15;97376.90;;;17.48;84.83
53526;BME280;40551;50.478;19.378;2023-07-30T01:39:50;97375.55;;;17.46;84.64
53526;BME280;40551;50.478;19.378;2023-07-30T01:42:29;97371.46;;;17.45;84.78
53526;BME280;40551;50.478;19.378;2023-07-30T01:45:05;97375.73;;;17.44;84.84
53526;BME280;40551;50.478;19.378;2023-07-30T01:47:39;97378.27;;;17.43;85.01
53526;BME280;40551;50.478;19.378;2023-07-30T01:50:12;97379.93;;;17.42;85.16
53526;BME280;40551;50.478;19.378;2023-07-30T01:52:45;97380.11;;;17.39;85.12
53526;BME280;40551;50.478;19.378;2023-07-30T01:55:19;97383.13;;;17.38;85.23
53526;BME280;40551;50.478;19.378;2023-07-30T01:57:54;97383.03;;;17.36;85.19
53526;BME280;40551;50.478;19.378;2023-07-30T02:00:26;97386.27;;;17.32;85.09
53526;BME280;40551;50.478;19.378;2023-07-30T02:03:07;97387.02;;;17.27;85.06
53526;BME280;40551;50.478;19.378;2023-07-30T02:05:42;97383.70;;;17.23;85.17
53526;BME280;40551;50.478;19.378;2023-07-30T02:08:15;97385.20;;;17.19;84.97
53526;BME280;40551;50.478;19.378;2023-07-30T02:10:58;97383.51;;;17.15;84.93
53526;BME280;40551;50.478;19.378;2023-07-30T02:13:33;97382.32;;;17.09;85.14
53526;BME280;40551;50.478;19.378;2023-07-30T02:16:08;97380.98;;;17.04;85.10
53526;BME280;40551;50.478;19.378;2023-07-30T02:18:42;97376.72;;;16.99;85.18
53526;BME280;40551;50.478;19.378;2023-07-30T02:21:17;97373.48;;;16.95;85.24
53526;BME280;40551;50.478;19.378;2023-07-30T02:23:50;97377.50;;;16.92;85.32
53526;BME280;40551;50.478;19.378;2023-07-30T02:26:25;97378.23;;;16.89;85.06
53526;BME280;40551;50.478;19.378;2023-07-30T02:29:00;97380.23;;;16.85;85.00
53526;BME280;40551;50.478;19.378;2023-07-30T02:31:33;97375.77;;;16.83;85.09
53526;BME280;40551;50.478;19.378;2023-07-30T02:34:08;97379.65;;;16.80;84.94
53526;BME280;40551;50.478;19.378;2023-07-30T02:36:41;97381.59;;;16.77;84.90
53526;BME280;40551;50.478;19.378;2023-07-30T02:39:16;97384.89;;;16.74;84.92
53526;BME280;40551;50.478;19.378;2023-07-30T02:41:50;97387.98;;;16.71;85.00
53526;BME280;40551;50.478;19.378;2023-07-30T02:44:23;97391.89;;;16.67;84.82
53526;BME280;40551;50.478;19.378;2023-07-30T02:46:57;97391.09;;;16.63;84.77
53526;BME280;40551;50.478;19.378;2023-07-30T02:49:30;97391.45;;;16.58;84.93
53526;BME280;40551;50.478;19.378;2023-07-30T02:52:03;97393.69;;;16.52;84.74
53526;BME280;40551;50.478;19.378;2023-07-30T02:54:36;97389.14;;;16.46;85.11
53526;BME280;40551;50.478;19.378;2023-07-30T02:57:12;97392.44;;;16.45;85.10
53526;BME280;40551;50.478;19.378;2023-07-30T02:59:45;97393.00;;;16.42;85.10
53526;BME280;40551;50.478;19.378;2023-07-30T03:02:19;97396.27;;;16.38;85.27
53526;BME280;40551;50.478;19.378;2023-07-30T03:04:54;97397.91;;;16.34;85.37
53526;BME280;40551;50.478;19.378;2023-07-30T03:07:29;97399.58;;;16.32;85.57
53526;BME280;40551;50.478;19.378;2023-07-30T03:10:03;97397.77;;;16.30;85.70
53526;BME280;40551;50.478;19.378;2023-07-30T03:12:39;97392.96;;;16.26;85.52
53526;BME280;40551;50.478;19.378;2023-07-30T03:15:13;97392.73;;;16.24;85.69
53526;BME280;40551;50.478;19.378;2023-07-30T03:17:47;97392.36;;;16.21;85.74
53526;BME280;40551;50.478;19.378;2023-07-30T03:20:24;97390.34;;;16.17;85.71
53526;BME280;40551;50.478;19.378;2023-07-30T03:22:58;97394.47;;;16.15;85.86
53526;BME280;40551;50.478;19.378;2023-07-30T03:25:32;97400.05;;;16.12;85.71
53526;BME280;40551;50.478;19.378;2023-07-30T03:28:06;97403.05;;;16.10;86.22
53526;BME280;40551;50.478;19.378;2023-07-30T03:30:40;97405.48;;;16.07;86.39
53526;BME280;40551;50.478;19.378;2023-07-30T03:33:14;97407.58;;;16.08;86.77
53526;BME280;40551;50.478;19.378;2023-07-30T03:35:49;97406.25;;;16.08;86.73
53526;BME280;40551;50.478;19.378;2023-07-30T03:38:24;97409.96;;;16.08;86.64
53526;BME280;40551;50.478;19.378;2023-07-30T03:40:58;97409.77;;;16.08;86.78
53526;BME280;40551;50.478;19.378;2023-07-30T03:43:32;97410.42;;;16.09;86.69
53526;BME280;40551;50.478;19.378;2023-07-30T03:46:07;97412.35;;;16.08;86.71
53526;BME280;40551;50.478;19.378;2023-07-30T03:48:40;97415.75;;;16.09;86.70
53526;BME280;40551;50.478;19.378;2023-07-30T03:51:17;97417.88;;;16.10;86.71
53526;BME280;40551;50.478;19.378;2023-07-30T03:53:50;97419.70;;;16.11;86.70
53526;BME280;40551;50.478;19.378;2023-07-30T03:56:24;97422.75;;;16.14;86.93
53526;BME280;40551;50.478;19.378;2023-07-30T03:58:59;97421.18;;;16.16;86.76
53526;BME280;40551;50.478;19.378;2023-07-30T04:01:32;97419.63;;;16.18;86.73
53526;BME280;40551;50.478;19.378;2023-07-30T04:04:09;97422.84;;;16.19;86.73
53526;BME280;40551;50.478;19.378;2023-07-30T04:06:43;97425.17;;;16.19;86.66
53526;BME280;40551;50.478;19.378;2023-07-30T04:09:17;97430.42;;;16.22;86.55
53526;BME280;40551;50.478;19.378;2023-07-30T04:11:50;97431.90;;;16.24;86.64
53526;BME280;40551;50.478;19.378;2023-07-30T04:14:23;97430.29;;;16.27;86.81
53526;BME280;40551;50.478;19.378;2023-07-30T04:17:00;97434.86;;;16.31;86.91
53526;BME280;40551;50.478;19.378;2023-07-30T04:19:33;97440.86;;;16.35;86.96
53526;BME280;40551;50.478;19.378;2023-07-30T04:22:06;97441.33;;;16.40;86.87
53526;BME280;40551;50.478;19.378;2023-07-30T04:24:40;97436.88;;;16.45;86.88
53526;BME280;40551;50.478;19.378;2023-07-30T04:27:14;97436.80;;;16.49;86.60
53526;BME280;40551;50.478;19.378;2023-07-30T04:29:47;97433.31;;;16.50;86.61
53526;BME280;40551;50.478;19.378;2023-07-30T04:32:22;97430.40;;;16.54;86.60
53526;BME280;40551;50.478;19.378;2023-07-30T04:34:55;97429.47;;;16.57;86.66
53526;BME280;40551;50.478;19.378;2023-07-30T04:37:30;97428.56;;;16.59;86.71
53526;BME280;40551;50.478;19.378;2023-07-30T04:40:07;97430.14;;;16.63;86.94
53526;BME280;40551;50.478;19.378;2023-07-30T04:42:41;97431.86;;;16.68;86.92
53526;BME280;40551;50.478;19.378;2023-07-30T04:45:15;97439.16;;;16.74;86.92
53526;BME280;40551;50.478;19.378;2023-07-30T04:47:52;97446.10;;;16.81;86.99
53526;BME280;40551;50.478;19.378;2023-07-30T04:50:27;97452.08;;;16.87;86.98
53526;BME280;40551;50.478;19.378;2023-07-30T04:53:02;97456.64;;;16.94;86.97
53526;BME280;40551;50.478;19.378;2023-07-30T04:55:38;97455.23;;;17.03;86.66
53526;BME280;40551;50.478;19.378;2023-07-30T04:58:13;97451.05;;;17.11;86.72
53526;BME280;40551;50.478;19.378;2023-07-30T05:00:47;97450.52;;;17.16;86.52
53526;BME280;40551;50.478;19.378;2023-07-30T05:03:23;97451.14;;;17.20;86.46
53526;BME280;40551;50.478;19.378;2023-07-30T05:05:56;97448.98;;;17.31;86.53
53526;BME280;40551;50.478;19.378;2023-07-30T05:08:31;97451.88;;;17.39;86.06
53526;BME280;40551;50.478;19.378;2023-07-30T05:11:06;97449.73;;;17.44;85.86
53526;BME280;40551;50.478;19.378;2023-07-30T05:13:39;97447.27;;;17.48;85.71
53526;BME280;40551;50.478;19.378;2023-07-30T05:16:15;97447.06;;;17.58;85.95
53526;BME280;40551;50.478;19.378;2023-07-30T05:18:50;97455.02;;;17.69;85.60
53526;BME280;40551;50.478;19.378;2023-07-30T05:21:24;97456.07;;;17.78;85.13
53526;BME280;40551;50.478;19.378;2023-07-30T05:23:57;97451.12;;;17.89;84.88
53526;BME280;40551;50.478;19.378;2023-07-30T05:26:31;97452.37;;;18.00;84.39
53526;BME280;40551;50.478;19.378;2023-07-30T05:29:06;97454.77;;;18.08;84.37
53526;BME280;40551;50.478;19.378;2023-07-30T05:31:39;97460.20;;;18.15;84.12
53526;BME280;40551;50.478;19.378;2023-07-30T05:34:14;97464.13;;;18.20;83.87
53526;BME280;40551;50.478;19.378;2023-07-30T05:36:48;97465.81;;;18.25;83.56
53526;BME280;40551;50.478;19.378;2023-07-30T05:39:22;97471.86;;;18.34;83.14
53526;BME280;40551;50.478;19.378;2023-07-30T05:41:56;97478.16;;;18.42;83.12
53526;BME280;40551;50.478;19.378;2023-07-30T05:44:32;97481.61;;;18.51;83.45
53526;BME280;40551;50.478;19.378;2023-07-30T05:47:07;97485.44;;;18.64;83.10
53526;BME280;40551;50.478;19.378;2023-07-30T05:49:41;97485.61;;;18.79;83.21
53526;BME280;40551;50.478;19.378;2023-07-30T05:52:16;97485.79;;;18.99;82.77
53526;BME280;40551;50.478;19.378;2023-07-30T05:54:50;97483.65;;;19.19;82.58
53526;BME280;40551;50.478;19.378;2023-07-30T05:57:23;97484.14;;;19.37;81.78
53526;BME280;40551;50.478;19.378;2023-07-30T05:59:57;97489.20;;;19.57;81.49
53526;BME280;40551;50.478;19.378;2023-07-30T06:02:42;97486.69;;;19.77;81.14
53526;BME280;40551;50.478;19.378;2023-07-30T06:05:15;97490.66;;;19.96;80.88
53526;BME280;40551;50.478;19.378;2023-07-30T06:07:49;97486.88;;;20.09;80.01
53526;BME280;40551;50.478;19.378;2023-07-30T06:10:23;97483.87;;;20.19;79.44
53526;BME280;40551;50.478;19.378;2023-07-30T06:12:57;97481.48;;;20.32;79.18
53526;BME280;40551;50.478;19.378;2023-07-30T06:15:30;97481.91;;;20.42;78.50
53526;BME280;40551;50.478;19.378;2023-07-30T06:18:03;97476.61;;;20.53;78.13
53526;BME280;40551;50.478;19.378;2023-07-30T06:20:39;97476.60;;;20.62;77.51
53526;BME280;40551;50.478;19.378;2023-07-30T06:23:11;97475.07;;;20.69;77.03
53526;BME280;40551;50.478;19.378;2023-07-30T06:25:46;97474.10;;;20.71;76.61
53526;BME280;40551;50.478;19.378;2023-07-30T06:28:21;97478.55;;;20.76;76.56
53526;BME280;40551;50.478;19.378;2023-07-30T06:30:56;97474.20;;;20.83;76.52
53526;BME280;40551;50.478;19.378;2023-07-30T06:33:33;97475.83;;;20.93;76.36
53526;BME280;40551;50.478;19.378;2023-07-30T06:36:08;97476.73;;;21.02;75.99
53526;BME280;40551;50.478;19.378;2023-07-30T06:38:41;97480.10;;;21.10;75.99
53526;BME280;40551;50.478;19.378;2023-07-30T06:41:15;97478.55;;;21.18;75.21
53526;BME280;40551;50.478;19.378;2023-07-30T06:43:49;97483.96;;;21.21;74.73
53526;BME280;40551;50.478;19.378;2023-07-30T06:46:24;97486.70;;;21.31;74.93
53526;BME280;40551;50.478;19.378;2023-07-30T06:48:59;97485.54;;;21.41;74.66
53526;BME280;40551;50.478;19.378;2023-07-30T06:51:33;97487.80;;;21.51;74.70
53526;BME280;40551;50.478;19.378;2023-07-30T06:54:07;97484.90;;;21.64;74.23
53526;BME280;40551;50.478;19.378;2023-07-30T06:56:41;97487.13;;;21.76;74.12
53526;BME280;40551;50.478;19.378;2023-07-30T06:59:16;97491.39;;;21.92;73.56
53526;BME280;40551;50.478;19.378;2023-07-30T07:01:50;97490.77;;;22.04;72.89
53526;BME280;40551;50.478;19.378;2023-07-30T07:04:24;97488.52;;;22.14;72.59
53526;BME280;40551;50.478;19.378;2023-07-30T07:06:57;97487.86;;;22.22;72.11
53526;BME280;40551;50.478;19.378;2023-07-30T07:09:33;97484.08;;;22.30;71.85
53526;BME280;40551;50.478;19.378;2023-07-30T07:12:07;97487.98;;;22.36;71.55
53526;BME280;40551;50.478;19.378;2023-07-30T07:14:41;97480.81;;;22.44;71.05
53526;BME280;40551;50.478;19.378;2023-07-30T07:17:16;97480.33;;;22.47;70.83
53526;BME280;40551;50.478;19.378;2023-07-30T07:19:50;97477.70;;;22.51;70.53
53526;BME280;40551;50.478;19.378;2023-07-30T07:22:24;97474.23;;;22.52;70.44
53526;BME280;40551;50.478;19.378;2023-07-30T07:24:58;97480.09;;;22.58;69.83
53526;BME280;40551;50.478;19.378;2023-07-30T07:27:31;97486.56;;;22.70;70.07
53526;BME280;40551;50.478;19.378;2023-07-30T07:30:08;97492.06;;;22.80;69.67
53526;BME280;40551;50.478;19.378;2023-07-30T07:32:43;97495.04;;;22.93;69.21
53526;BME280;40551;50.478;19.378;2023-07-30T07:35:18;97497.54;;;23.00;68.91
53526;BME280;40551;50.478;19.378;2023-07-30T07:37:52;97497.55;;;23.09;68.61
53526;BME280;40551;50.478;19.378;2023-07-30T07:40:27;97494.66;;;23.18;68.27
53526;BME280;40551;50.478;19.378;2023-07-30T07:43:02;97494.02;;;23.23;67.53
53526;BME280;40551;50.478;19.378;2023-07-30T07:45:47;97496.55;;;23.23;66.46
53526;BME280;40551;50.478;19.378;2023-07-30T07:48:21;97495.42;;;23.24;66.85
53526;BME280;40551;50.478;19.378;2023-07-30T07:50:54;97489.29;;;23.32;67.25
53526;BME280;40551;50.478;19.378;2023-07-30T07:53:28;97480.91;;;23.38;66.59
53526;BME280;40551;50.478;19.378;2023-07-30T07:56:02;97483.92;;;23.40;66.64
53526;BME280;40551;50.478;19.378;2023-07-30T07:58:35;97488.10;;;23.43;66.48
53526;BME280;40551;50.478;19.378;2023-07-30T08:01:07;97487.90;;;23.45;66.21
53526;BME280;40551;50.478;19.378;2023-07-30T08:03:40;97490.77;;;23.45;65.79
53526;BME280;40551;50.478;19.378;2023-07-30T08:06:15;97488.98;;;23.43;65.38
53526;BME280;40551;50.478;19.378;2023-07-30T08:08:49;97487.06;;;23.44;65.14
53526;BME280;40551;50.478;19.378;2023-07-30T08:11:23;97485.48;;;23.43;64.67
53526;BME280;40551;50.478;19.378;2023-07-30T08:13:57;97486.36;;;23.42;64.60
53526;BME280;40551;50.478;19.378;2023-07-30T08:16:32;97486.15;;;23.44;65.06
53526;BME280;40551;50.478;19.378;2023-07-30T08:19:07;97484.93;;;23.48;65.54
53526;BME280;40551;50.478;19.378;2023-07-30T08:21:40;97482.71;;;23.51;65.03
53526;BME280;40551;50.478;19.378;2023-07-30T08:24:13;97484.41;;;23.57;65.25
53526;BME280;40551;50.478;19.378;2023-07-30T08:26:46;97479.54;;;23.64;64.56
53526;BME280;40551;50.478;19.378;2023-07-30T08:29:19;97478.36;;;23.68;64.03
53526;BME280;40551;50.478;19.378;2023-07-30T08:31:54;97483.96;;;23.74;64.12
53526;BME280;40551;50.478;19.378;2023-07-30T08:34:27;97487.04;;;23.80;63.53
53526;BME280;40551;50.478;19.378;2023-07-30T08:37:01;97487.99;;;23.82;63.18
53526;BME280;40551;50.478;19.378;2023-07-30T08:39:33;97491.80;;;23.82;63.24
53526;BME280;40551;50.478;19.378;2023-07-30T08:42:08;97489.67;;;23.84;63.37
53526;BME280;40551;50.478;19.378;2023-07-30T08:44:41;97495.90;;;23.93;63.68
53526;BME280;40551;50.478;19.378;2023-07-30T08:47:15;97494.80;;;23.98;63.38
53526;BME280;40551;50.478;19.378;2023-07-30T08:49:50;97505.30;;;24.02;63.35
53526;BME280;40551;50.478;19.378;2023-07-30T08:52:24;97504.66;;;24.08;63.26
53526;BME280;40551;50.478;19.378;2023-07-30T08:55:00;97500.95;;;24.11;62.30
53526;BME280;40551;50.478;19.378;2023-07-30T08:57:34;97502.42;;;24.11;62.38
53526;BME280;40551;50.478;19.378;2023-07-30T09:00:10;97501.58;;;24.16;62.05
53526;BME280;40551;50.478;19.378;2023-07-30T09:02:49;97505.02;;;24.22;62.45
53526;BME280;40551;50.478;19.378;2023-07-30T09:05:25;97503.97;;;24.29;62.50
53526;BME280;40551;50.478;19.378;2023-07-30T09:08:00;97508.27;;;24.38;62.27
53526;BME280;40551;50.478;19.378;2023-07-30T09:10:33;97508.02;;;24.46;61.01
53526;BME280;40551;50.478;19.378;2023-07-30T09:13:07;97513.59;;;24.46;60.65
53526;BME280;40551;50.478;19.378;2023-07-30T09:15:42;97511.84;;;24.45;60.10
53526;BME280;40551;50.478;19.378;2023-07-30T09:18:17;97514.85;;;24.41;60.97
53526;BME280;40551;50.478;19.378;2023-07-30T09:20:53;97511.96;;;24.37;60.52
53526;BME280;40551;50.478;19.378;2023-07-30T09:23:26;97511.95;;;24.30;59.75
53526;BME280;40551;50.478;19.378;2023-07-30T09:26:01;97505.30;;;24.23;60.20
53526;BME280;40551;50.478;19.378;2023-07-30T09:28:34;97505.81;;;24.17;59.78
53526;BME280;40551;50.478;19.378;2023-07-30T09:31:08;97507.20;;;24.12;60.49
53526;BME280;40551;50.478;19.378;2023-07-30T09:33:55;97507.22;;;24.19;61.01
53526;BME280;40551;50.478;19.378;2023-07-30T09:36:30;97503.45;;;24.19;61.02
53526;BME280;40551;50.478;19.378;2023-07-30T09:39:05;97502.09;;;24.17;60.61
53526;BME280;40551;50.478;19.378;2023-07-30T09:41:48;97501.29;;;24.17;60.49
53526;BME280;40551;50.478;19.378;2023-07-30T09:44:21;97500.26;;;24.16;60.86
53526;BME280;40551;50.478;19.378;2023-07-30T09:46:56;97497.10;;;24.17;61.30
53526;BME280;40551;50.478;19.378;2023-07-30T09:49:30;97494.67;;;24.21;60.84
53526;BME280;40551;50.478;19.378;2023-07-30T09:52:05;97493.45;;;24.23;60.98
53526;BME280;40551;50.478;19.378;2023-07-30T09:54:40;97493.14;;;24.24;60.38
53526;BME280;40551;50.478;19.378;2023-07-30T09:57:14;97491.41;;;24.29;60.47
53526;BME280;40551;50.478;19.378;2023-07-30T09:59:47;97487.96;;;24.34;60.35
53526;BME280;40551;50.478;19.378;2023-07-30T10:02:24;97487.63;;;24.41;60.39
53526;BME280;40551;50.478;19.378;2023-07-30T10:05:00;97487.84;;;24.47;60.79
53526;BME280;40551;50.478;19.378;2023-07-30T10:07:35;97486.67;;;24.52;60.65
53526;BME280;40551;50.478;19.378;2023-07-30T10:10:12;97489.52;;;24.58;59.83
53526;BME280;40551;50.478;19.378;2023-07-30T10:12:47;97491.83;;;24.59;59.78
53526;BME280;40551;50.478;19.378;2023-07-30T10:15:23;97488.63;;;24.62;59.96
53526;BME280;40551;50.478;19.378;2023-07-30T10:17:58;97492.69;;;24.62;60.76
53526;BME280;40551;50.478;19.378;2023-07-30T10:20:40;97489.48;;;24.59;60.81
53526;BME280;40551;50.478;19.378;2023-07-30T10:23:13;97485.79;;;24.58;59.39
53526;BME280;40551;50.478;19.378;2023-07-30T10:25:49;97487.27;;;24.60;59.48
53526;BME280;40551;50.478;19.378;2023-07-30T10:28:32;97485.86;;;24.62;60.06
53526;BME280;40551;50.478;19.378;2023-07-30T10:31:08;97484.52;;;24.61;60.33
53526;BME280;40551;50.478;19.378;2023-07-30T10:33:50;97486.14;;;24.62;59.83
53526;BME280;40551;50.478;19.378;2023-07-30T10:36:32;97485.44;;;24.64;60.44
53526;BME280;40551;50.478;19.378;2023-07-30T10:39:17;97483.29;;;24.68;60.05
53526;BME280;40551;50.478;19.378;2023-07-30T10:41:53;97484.50;;;24.68;60.36
53526;BME280;40551;50.478;19.378;2023-07-30T10:44:30;97481.41;;;24.65;60.24
53526;BME280;40551;50.478;19.378;2023-07-30T10:47:07;97481.57;;;24.65;60.69
53526;BME280;40551;50.478;19.378;2023-07-30T10:50:05;97480.56;;;24.66;59.75
53526;BME280;40551;50.478;19.378;2023-07-30T10:52:38;97478.90;;;24.67;60.37
53526;BME280;40551;50.478;19.378;2023-07-30T10:55:12;97480.30;;;24.63;60.32
53526;BME280;40551;50.478;19.378;2023-07-30T10:57:45;97482.04;;;24.62;59.82
53526;BME280;40551;50.478;19.378;2023-07-30T11:00:20;97480.21;;;24.64;59.88
53526;BME280;40551;50.478;19.378;2023-07-30T11:02:57;97482.08;;;24.66;59.95
53526;BME280;40551;50.478;19.378;2023-07-30T11:05:30;97475.11;;;24.67;59.48
53526;BME280;40551;50.478;19.378;2023-07-30T11:08:03;97471.41;;;24.68;59.94
53526;BME280;40551;50.478;19.378;2023-07-30T11:10:43;97467.14;;;24.70;59.19
53526;BME280;40551;50.478;19.378;2023-07-30T11:13:16;97471.73;;;24.74;59.29
53526;BME280;40551;50.478;19.378;2023-07-30T11:15:51;97475.94;;;24.78;60.04
53526;BME280;40551;50.478;19.378;2023-07-30T11:18:24;97473.21;;;24.86;59.77
53526;BME280;40551;50.478;19.378;2023-07-30T11:21:07;97470.76;;;24.91;60.29
53526;BME280;40551;50.478;19.378;2023-07-30T11:23:43;97470.33;;;24.99;59.96
53526;BME280;40551;50.478;19.378;2023-07-30T11:26:18;97471.26;;;25.03;60.17
53526;BME280;40551;50.478;19.378;2023-07-30T11:28:52;97472.83;;;25.05;59.33
53526;BME280;40551;50.478;19.378;2023-07-30T11:31:26;97474.82;;;25.06;59.11
53526;BME280;40551;50.478;19.378;2023-07-30T11:33:59;97472.65;;;25.07;58.66
53526;BME280;40551;50.478;19.378;2023-07-30T11:36:32;97475.57;;;25.03;58.53
53526;BME280;40551;50.478;19.378;2023-07-30T11:39:07;97476.09;;;24.99;58.69
53526;BME280;40551;50.478;19.378;2023-07-30T11:41:43;97477.63;;;24.96;58.46
53526;BME280;40551;50.478;19.378;2023-07-30T11:44:32;97473.97;;;24.97;59.15
53526;BME280;40551;50.478;19.378;2023-07-30T11:47:06;97465.48;;;24.99;58.91
53526;BME280;40551;50.478;19.378;2023-07-30T11:49:40;97464.71;;;25.00;58.99
53526;BME280;40551;50.478;19.378;2023-07-30T11:52:14;97462.01;;;25.01;58.65
53526;BME280;40551;50.478;19.378;2023-07-30T11:54:47;97459.98;;;24.96;58.47
53526;BME280;40551;50.478;19.378;2023-07-30T11:57:22;97467.36;;;24.94;59.29
53526;BME280;40551;50.478;19.378;2023-07-30T11:59:56;97463.86;;;24.87;60.14
53526;BME280;40551;50.478;19.378;2023-07-30T12:02:32;97460.75;;;24.80;60.58
53526;BME280;40551;50.478;19.378;2023-07-30T12:05:08;97461.92;;;24.75;60.62
53526;BME280;40551;50.478;19.378;2023-07-30T12:07:49;97463.79;;;24.72;60.10
53526;BME280;40551;50.478;19.378;2023-07-30T12:10:22;97460.08;;;24.70;59.76
53526;BME280;40551;50.478;19.378;2023-07-30T12:12:55;97460.21;;;24.67;60.30
53526;BME280;40551;50.478;19.378;2023-07-30T12:15:32;97459.47;;;24.67;60.28
53526;BME280;40551;50.478;19.378;2023-07-30T12:18:07;97464.26;;;24.67;60.53
53526;BME280;40551;50.478;19.378;2023-07-30T12:20:41;97462.48;;;24.61;60.42
53526;BME280;40551;50.478;19.378;2023-07-30T12:23:14;97462.42;;;24.60;59.85
53526;BME280;40551;50.478;19.378;2023-07-30T12:25:48;97458.15;;;24.62;59.10
53526;BME280;40551;50.478;19.378;2023-07-30T12:28:25;97455.92;;;24.65;58.68
53526;BME280;40551;50.478;19.378;2023-07-30T12:30:59;97457.91;;;24.69;60.31
53526;BME280;40551;50.478;19.378;2023-07-30T12:33:33;97458.57;;;24.69;59.97
53526;BME280;40551;50.478;19.378;2023-07-30T12:36:07;97461.34;;;24.72;59.72
53526;BME280;40551;50.478;19.378;2023-07-30T12:38:41;97463.36;;;24.75;60.13
53526;BME280;40551;50.478;19.378;2023-07-30T12:41:17;97458.82;;;24.79;60.21
53526;BME280;40551;50.478;19.378;2023-07-30T12:43:50;97458.95;;;24.78;59.53
53526;BME280;40551;50.478;19.378;2023-07-30T12:46:23;97453.43;;;24.78;59.52
53526;BME280;40551;50.478;19.378;2023-07-30T12:48:59;97445.86;;;24.80;58.50
53526;BME280;40551;50.478;19.378;2023-07-30T12:51:35;97444.36;;;24.88;57.84
53526;BME280;40551;50.478;19.378;2023-07-30T12:54:09;97440.95;;;24.94;57.37
53526;BME280;40551;50.478;19.378;2023-07-30T12:56:43;97441.70;;;24.96;59.28
53526;BME280;40551;50.478;19.378;2023-07-30T12:59:18;97441.28;;;24.94;60.08
53526;BME280;40551;50.478;19.378;2023-07-30T13:01:51;97442.38;;;24.94;60.35
53526;BME280;40551;50.478;19.378;2023-07-30T13:04:25;97444.41;;;24.93;59.43
53526;BME280;40551;50.478;19.378;2023-07-30T13:07:01;97443.27;;;24.96;59.76
53526;BME280;40551;50.478;19.378;2023-07-30T13:09:37;97440.18;;;24.99;59.12
53526;BME280;40551;50.478;19.378;2023-07-30T13:12:10;97436.02;;;25.00;58.80
53526;BME280;40551;50.478;19.378;2023-07-30T13:14:44;97437.74;;;24.98;59.24
53526;BME280;40551;50.478;19.378;2023-07-30T13:17:17;97436.39;;;24.94;59.28
53526;BME280;40551;50.478;19.378;2023-07-30T13:19:52;97436.31;;;24.91;59.14
53526;BME280;40551;50.478;19.378;2023-07-30T13:22:26;97433.59;;;24.90;58.63
53526;BME280;40551;50.478;19.378;2023-07-30T13:25:01;97438.67;;;24.91;58.89
53526;BME280;40551;50.478;19.378;2023-07-30T13:27:34;97437.35;;;24.90;58.08
53526;BME280;40551;50.478;19.378;2023-07-30T13:30:11;97434.84;;;24.86;58.70